createdAt,value
2017-07-29T00:00:42.484Z,0
2017-07-29T00:01:51.696Z,0
2017-07-29T00:03:00.909Z,0
2017-07-29T00:04:10.445Z,0
2017-07-29T00:05:19.704Z,0
2017-07-29T00:06:28.913Z,0
2017-07-29T00:07:38.798Z,0
2017-07-29T00:08:48.003Z,0
2017-07-29T00:09:57.212Z,0
2017-07-29T00:11:06.147Z,0
2017-07-29T00:12:16.007Z,0
2017-07-29T00:13:25.211Z,0
2017-07-29T00:14:34.738Z,0
2017-07-29T00:15:43.940Z,0
2017-07-29T00:16:53.145Z,0
2017-07-29T00:18:02.030Z,0
2017-07-29T00:19:11.882Z,0
2017-07-29T00:20:21.423Z,0
2017-07-29T00:21:30.969Z,0
2017-07-29T00:22:40.820Z,0
2017-07-29T00:23:50.035Z,0
2017-07-29T00:24:59.238Z,0
2017-07-29T00:26:08.445Z,0
2017-07-29T00:27:17.656Z,0
2017-07-29T00:28:27.489Z,0
2017-07-29T00:29:37.038Z,0
2017-07-29T00:30:46.568Z,0
2017-07-29T00:31:55.448Z,0
2017-07-29T00:33:05.298Z,0
2017-07-29T00:34:14.606Z,0
2017-07-29T00:35:24.780Z,0
2017-07-29T00:36:33.994Z,0
2017-07-29T00:37:43.519Z,0
2017-07-29T00:38:53.052Z,0
2017-07-29T00:40:01.936Z,0
2017-07-29T00:41:10.817Z,0
2017-07-29T00:42:20.348Z,0
2017-07-29T00:43:29.880Z,0
2017-07-29T00:44:39.416Z,0
2017-07-29T00:45:48.995Z,0
2017-07-29T00:46:58.206Z,0
2017-07-29T00:48:08.055Z,0
2017-07-29T00:49:17.912Z,0
2017-07-29T00:50:26.789Z,0
2017-07-29T00:51:36.435Z,0
2017-07-29T00:52:45.637Z,0
2017-07-29T00:53:54.842Z,0
2017-07-29T00:55:03.722Z,0
2017-07-29T00:56:12.930Z,0
2017-07-29T00:57:22.665Z,0
2017-07-29T00:58:31.869Z,0
2017-07-29T00:59:41.398Z,0
2017-07-29T01:00:50.930Z,0
2017-07-29T01:02:00.457Z,0
2017-07-29T01:03:09.984Z,0
2017-07-29T01:04:19.200Z,0
2017-07-29T01:05:28.735Z,0
2017-07-29T01:06:38.910Z,0
2017-07-29T01:07:48.115Z,0
2017-07-29T01:08:57.698Z,0
2017-07-29T01:10:07.229Z,0
2017-07-29T01:11:16.437Z,0
2017-07-29T01:12:25.644Z,0
2017-07-29T01:13:34.527Z,0
2017-07-29T01:14:44.200Z,0
2017-07-29T01:15:53.726Z,0
2017-07-29T01:17:02.607Z,0
2017-07-29T01:18:12.135Z,0
2017-07-29T01:19:21.344Z,0
2017-07-29T01:20:30.924Z,0
2017-07-29T01:21:40.131Z,0
2017-07-29T01:22:49.657Z,0
2017-07-29T01:23:58.862Z,0
2017-07-29T01:25:08.715Z,0
2017-07-29T01:26:18.570Z,0
2017-07-29T01:27:28.109Z,0
2017-07-29T01:28:37.325Z,0
2017-07-29T01:29:46.536Z,0
2017-07-29T01:30:56.062Z,0
2017-07-29T01:32:05.371Z,0
2017-07-29T01:33:14.897Z,0
2017-07-29T01:34:23.785Z,0
2017-07-29T01:35:33.638Z,0
2017-07-29T01:36:42.525Z,0
2017-07-29T01:37:52.355Z,0
2017-07-29T01:39:01.890Z,0
2017-07-29T01:40:11.421Z,0
2017-07-29T01:41:20.309Z,0
2017-07-29T01:42:29.861Z,0
2017-07-29T01:43:39.492Z,0
2017-07-29T01:44:48.709Z,0
2017-07-29T01:45:58.562Z,0
2017-07-29T01:47:07.769Z,0
2017-07-29T01:48:16.979Z,0
2017-07-29T01:49:26.281Z,0
2017-07-29T01:50:35.808Z,0
2017-07-29T01:51:44.692Z,0
2017-07-29T01:52:54.543Z,0
2017-07-29T01:54:03.747Z,0
2017-07-29T01:55:13.697Z,0
2017-07-29T01:56:23.230Z,0
2017-07-29T01:57:32.118Z,0
2017-07-29T01:58:40.999Z,0
2017-07-29T01:59:50.527Z,0
2017-07-29T02:01:00.207Z,0
2017-07-29T02:02:09.466Z,0
2017-07-29T02:03:19.317Z,0
2017-07-29T02:04:28.200Z,0
2017-07-29T02:05:37.082Z,0
2017-07-29T02:06:46.114Z,0
2017-07-29T02:07:55.318Z,0
2017-07-29T02:09:05.170Z,0
2017-07-29T02:10:15.023Z,0
2017-07-29T02:11:24.555Z,0
2017-07-29T02:12:34.388Z,0
2017-07-29T02:13:43.269Z,0
2017-07-29T02:14:52.481Z,0
2017-07-29T02:16:02.331Z,0
2017-07-29T02:17:12.183Z,0
2017-07-29T02:18:21.786Z,0
2017-07-29T02:19:31.314Z,0
2017-07-29T02:20:40.842Z,0
2017-07-29T02:21:51.020Z,0
2017-07-29T02:23:00.227Z,0
2017-07-29T02:24:09.610Z,0
2017-07-29T02:25:19.147Z,0
2017-07-29T02:26:28.364Z,0
2017-07-29T02:27:37.571Z,0
2017-07-29T02:28:47.100Z,0
2017-07-29T02:29:56.461Z,0
2017-07-29T02:31:06.016Z,0
2017-07-29T02:32:14.900Z,0
2017-07-29T02:33:24.101Z,0
2017-07-29T02:34:33.628Z,0
2017-07-29T02:35:42.836Z,0
2017-07-29T02:36:52.140Z,0
2017-07-29T02:38:01.351Z,0
2017-07-29T02:39:10.877Z,0
2017-07-29T02:40:20.407Z,0
2017-07-29T02:41:30.363Z,0
2017-07-29T02:42:39.893Z,0
2017-07-29T02:43:49.447Z,0
2017-07-29T02:44:58.650Z,0
2017-07-29T02:46:07.861Z,0
2017-07-29T02:47:16.849Z,0
2017-07-29T02:48:26.703Z,0
2017-07-29T02:49:36.234Z,0
2017-07-29T02:50:45.437Z,0
2017-07-29T02:51:54.977Z,0
2017-07-29T02:53:04.232Z,0
2017-07-29T02:54:13.442Z,0
2017-07-29T02:55:22.654Z,0
2017-07-29T02:56:32.511Z,0
2017-07-29T02:57:42.383Z,0
2017-07-29T02:58:52.061Z,0
2017-07-29T03:00:00.941Z,0
2017-07-29T03:01:10.800Z,0
2017-07-29T03:02:20.004Z,0
2017-07-29T03:03:29.528Z,0
2017-07-29T03:04:38.979Z,0
2017-07-29T03:05:48.505Z,0
2017-07-29T03:06:57.714Z,0
2017-07-29T03:08:06.919Z,0
2017-07-29T03:09:16.446Z,0
2017-07-29T03:10:26.126Z,0
2017-07-29T03:11:35.978Z,0
2017-07-29T03:12:45.830Z,0
2017-07-29T03:13:55.370Z,0
2017-07-29T03:15:04.575Z,0
2017-07-29T03:16:14.904Z,0
2017-07-29T03:17:24.117Z,0
2017-07-29T03:18:33.325Z,0
2017-07-29T03:19:42.541Z,4
2017-07-29T03:20:51.421Z,4
2017-07-29T03:22:00.945Z,4
2017-07-29T03:23:09.846Z,4
2017-07-29T03:24:19.051Z,4
2017-07-29T03:25:28.256Z,4
2017-07-29T03:26:38.109Z,4
2017-07-29T03:27:47.145Z,4
2017-07-29T03:28:56.032Z,4
2017-07-29T03:30:05.560Z,4
2017-07-29T03:31:16.081Z,8
2017-07-29T03:32:25.627Z,4
2017-07-29T03:33:34.659Z,4
2017-07-29T03:34:44.197Z,8
2017-07-29T03:35:53.726Z,4
2017-07-29T03:37:03.257Z,8
2017-07-29T03:38:12.142Z,8
2017-07-29T03:39:21.395Z,8
2017-07-29T03:40:31.248Z,12
2017-07-29T03:41:40.782Z,12
2017-07-29T03:42:50.321Z,12
2017-07-29T03:44:00.190Z,12
2017-07-29T03:45:09.717Z,12
2017-07-29T03:46:18.923Z,8
2017-07-29T03:47:28.453Z,16
2017-07-29T03:48:37.659Z,20
2017-07-29T03:49:47.186Z,20
2017-07-29T03:50:57.199Z,16
2017-07-29T03:52:06.399Z,16
2017-07-29T03:53:15.607Z,20
2017-07-29T03:54:25.130Z,28
2017-07-29T03:55:34.343Z,32
2017-07-29T03:56:44.033Z,32
2017-07-29T03:57:52.919Z,36
2017-07-29T03:59:01.802Z,44
2017-07-29T04:00:11.657Z,44
2017-07-29T04:01:20.877Z,44
2017-07-29T04:02:30.342Z,48
2017-07-29T04:03:40.200Z,56
2017-07-29T04:04:50.056Z,64
2017-07-29T04:05:59.258Z,68
2017-07-29T04:07:08.461Z,72
2017-07-29T04:08:17.401Z,76
2017-07-29T04:09:26.602Z,76
2017-07-29T04:10:35.805Z,88
2017-07-29T04:11:45.341Z,80
2017-07-29T04:12:54.553Z,72
2017-07-29T04:14:04.555Z,84
2017-07-29T04:15:14.409Z,96
2017-07-29T04:16:23.935Z,96
2017-07-29T04:17:33.463Z,84
2017-07-29T04:18:42.666Z,72
2017-07-29T04:19:51.599Z,84
2017-07-29T04:21:00.805Z,80
2017-07-29T04:22:10.333Z,104
2017-07-29T04:23:19.537Z,84
2017-07-29T04:24:29.067Z,88
2017-07-29T04:25:38.584Z,108
2017-07-29T04:26:47.801Z,160
2017-07-29T04:27:57.005Z,208
2017-07-29T04:29:06.537Z,184
2017-07-29T04:30:15.743Z,168
2017-07-29T04:31:25.207Z,180
2017-07-29T04:32:34.418Z,192
2017-07-29T04:33:43.294Z,200
2017-07-29T04:34:52.194Z,200
2017-07-29T04:36:01.404Z,196
2017-07-29T04:37:10.940Z,196
2017-07-29T04:38:19.823Z,200
2017-07-29T04:39:29.350Z,208
2017-07-29T04:40:38.559Z,200
2017-07-29T04:41:48.089Z,208
2017-07-29T04:42:57.492Z,196
2017-07-29T04:44:07.339Z,196
2017-07-29T04:45:16.541Z,204
2017-07-29T04:46:25.748Z,224
2017-07-29T04:47:34.632Z,252
2017-07-29T04:48:44.260Z,260
2017-07-29T04:49:53.474Z,252
2017-07-29T04:51:03.670Z,260
2017-07-29T04:52:13.524Z,228
2017-07-29T04:53:22.725Z,220
2017-07-29T04:54:31.926Z,256
2017-07-29T04:55:41.134Z,336
2017-07-29T04:56:50.339Z,388
2017-07-29T04:57:59.872Z,412
2017-07-29T04:59:08.758Z,380
2017-07-29T05:00:17.996Z,364
2017-07-29T05:01:28.181Z,396
2017-07-29T05:02:37.713Z,396
2017-07-29T05:03:47.265Z,392
2017-07-29T05:04:56.475Z,408
2017-07-29T05:06:05.453Z,424
2017-07-29T05:07:14.337Z,384
2017-07-29T05:08:23.537Z,316
2017-07-29T05:09:32.743Z,284
2017-07-29T05:10:41.955Z,288
2017-07-29T05:11:51.944Z,324
2017-07-29T05:13:00.840Z,356
2017-07-29T05:14:10.379Z,364
2017-07-29T05:15:19.584Z,320
2017-07-29T05:16:28.791Z,300
2017-07-29T05:17:38.194Z,308
2017-07-29T05:18:47.397Z,296
2017-07-29T05:19:56.277Z,312
2017-07-29T05:21:06.141Z,336
2017-07-29T05:22:15.346Z,344
2017-07-29T05:23:25.208Z,320
2017-07-29T05:24:34.733Z,308
2017-07-29T05:25:43.934Z,312
2017-07-29T05:26:53.465Z,328
2017-07-29T05:28:03.012Z,348
2017-07-29T05:29:12.368Z,336
2017-07-29T05:30:21.897Z,332
2017-07-29T05:31:30.783Z,320
2017-07-29T05:32:39.987Z,332
2017-07-29T05:33:49.191Z,348
2017-07-29T05:34:58.375Z,444
2017-07-29T05:36:07.907Z,496
2017-07-29T05:37:17.759Z,580
2017-07-29T05:38:26.648Z,616
2017-07-29T05:39:35.854Z,636
2017-07-29T05:40:45.037Z,612
2017-07-29T05:41:53.935Z,660
2017-07-29T05:43:02.814Z,596
2017-07-29T05:44:12.988Z,512
2017-07-29T05:45:22.837Z,544
2017-07-29T05:46:32.239Z,516
2017-07-29T05:47:41.448Z,524
2017-07-29T05:48:50.975Z,492
2017-07-29T05:49:59.853Z,476
2017-07-29T05:51:08.738Z,468
2017-07-29T05:52:18.364Z,472
2017-07-29T05:53:27.892Z,584
2017-07-29T05:54:36.773Z,708
2017-07-29T05:55:46.303Z,712
2017-07-29T05:56:55.829Z,608
2017-07-29T05:58:04.869Z,540
2017-07-29T05:59:14.725Z,520
2017-07-29T06:00:23.608Z,540
2017-07-29T06:01:32.812Z,604
2017-07-29T06:02:41.715Z,696
2017-07-29T06:03:51.344Z,752
2017-07-29T06:05:00.874Z,732
2017-07-29T06:06:10.086Z,808
2017-07-29T06:07:19.294Z,1048
2017-07-29T06:08:28.182Z,1064
2017-07-29T06:09:37.861Z,984
2017-07-29T06:10:47.412Z,956
2017-07-29T06:11:56.939Z,1028
2017-07-29T06:13:06.139Z,1040
2017-07-29T06:14:15.349Z,1120
2017-07-29T06:15:24.706Z,1456
2017-07-29T06:16:33.914Z,1724
2017-07-29T06:17:42.797Z,1744
2017-07-29T06:18:52.647Z,1568
2017-07-29T06:20:01.529Z,1252
2017-07-29T06:21:11.055Z,944
2017-07-29T06:22:20.590Z,952
2017-07-29T06:23:30.444Z,1144
2017-07-29T06:24:39.648Z,1236
2017-07-29T06:25:49.193Z,1216
2017-07-29T06:26:58.550Z,1376
2017-07-29T06:28:07.758Z,1424
2017-07-29T06:29:16.642Z,1200
2017-07-29T06:30:25.849Z,1268
2017-07-29T06:31:34.732Z,1660
2017-07-29T06:32:43.725Z,1992
2017-07-29T06:33:52.932Z,2128
2017-07-29T06:35:01.815Z,2252
2017-07-29T06:36:11.347Z,2416
2017-07-29T06:37:20.229Z,2420
2017-07-29T06:38:29.482Z,2628
2017-07-29T06:39:39.028Z,2608
2017-07-29T06:40:47.909Z,2596
2017-07-29T06:41:57.109Z,2472
2017-07-29T06:43:06.638Z,2208
2017-07-29T06:44:15.858Z,2080
2017-07-29T06:45:25.392Z,2252
2017-07-29T06:46:34.595Z,2156
2017-07-29T06:47:43.473Z,2236
2017-07-29T06:48:52.354Z,2740
2017-07-29T06:50:01.387Z,2964
2017-07-29T06:51:11.237Z,2928
2017-07-29T06:52:21.091Z,2492
2017-07-29T06:53:30.944Z,1948
2017-07-29T06:54:40.476Z,1964
2017-07-29T06:55:49.832Z,2160
2017-07-29T06:56:58.713Z,2136
2017-07-29T06:58:07.931Z,2260
2017-07-29T06:59:17.462Z,2348
2017-07-29T07:00:27.637Z,2260
2017-07-29T07:01:36.696Z,2276
2017-07-29T07:02:45.902Z,2332
2017-07-29T07:03:54.793Z,2208
2017-07-29T07:05:03.728Z,2320
2017-07-29T07:06:12.612Z,2460
2017-07-29T07:07:22.293Z,2248
2017-07-29T07:08:31.497Z,2460
2017-07-29T07:09:41.028Z,2040
2017-07-29T07:10:50.560Z,2284
2017-07-29T07:12:00.093Z,2888
2017-07-29T07:13:09.305Z,3332
2017-07-29T07:14:18.188Z,3392
2017-07-29T07:15:27.393Z,3300
2017-07-29T07:16:36.286Z,2952
2017-07-29T07:17:45.491Z,3024
2017-07-29T07:18:54.525Z,3112
2017-07-29T07:20:04.076Z,2900
2017-07-29T07:21:13.927Z,2964
2017-07-29T07:22:23.456Z,2780
2017-07-29T07:23:32.990Z,1728
2017-07-29T07:24:42.563Z,1988
2017-07-29T07:25:51.768Z,2200
2017-07-29T07:27:01.307Z,1900
2017-07-29T07:28:10.529Z,1600
2017-07-29T07:29:20.392Z,1816
2017-07-29T07:30:30.074Z,1576
2017-07-29T07:31:39.922Z,1424
2017-07-29T07:32:49.128Z,1388
2017-07-29T07:33:59.304Z,1604
2017-07-29T07:35:08.843Z,1880
2017-07-29T07:36:18.522Z,2484
2017-07-29T07:37:28.050Z,2796
2017-07-29T07:38:36.932Z,2828
2017-07-29T07:39:45.813Z,2780
2017-07-29T07:40:55.345Z,2568
2017-07-29T07:42:04.558Z,2768
2017-07-29T07:43:13.763Z,3336
2017-07-29T07:44:23.305Z,2688
2017-07-29T07:45:32.512Z,2336
2017-07-29T07:46:41.720Z,2420
2017-07-29T07:47:51.409Z,2728
2017-07-29T07:49:00.614Z,2952
2017-07-29T07:50:10.794Z,2932
2017-07-29T07:51:19.998Z,2544
2017-07-29T07:52:29.532Z,2232
2017-07-29T07:53:38.890Z,2184
2017-07-29T07:54:47.781Z,2140
2017-07-29T07:55:57.632Z,2156
2017-07-29T07:57:07.161Z,2132
2017-07-29T07:58:16.045Z,2180
2017-07-29T07:59:25.403Z,2820
2017-07-29T08:00:34.632Z,3004
2017-07-29T08:01:43.513Z,2668
2017-07-29T08:02:52.397Z,2816
2017-07-29T08:04:01.929Z,2564
2017-07-29T08:05:11.185Z,2296
2017-07-29T08:06:20.722Z,2144
2017-07-29T08:07:29.603Z,2020
2017-07-29T08:08:38.487Z,2656
2017-07-29T08:09:47.370Z,2764
2017-07-29T08:10:56.683Z,3020
2017-07-29T08:12:06.538Z,2956
2017-07-29T08:13:16.074Z,3048
2017-07-29T08:14:25.287Z,2820
2017-07-29T08:15:34.813Z,3024
2017-07-29T08:16:44.164Z,2140
2017-07-29T08:17:53.701Z,2652
2017-07-29T08:19:03.584Z,2708
2017-07-29T08:20:13.436Z,3048
2017-07-29T08:21:22.314Z,2936
2017-07-29T08:22:31.988Z,3416
2017-07-29T08:23:41.529Z,3252
2017-07-29T08:24:51.061Z,3320
2017-07-29T08:26:00.916Z,3308
2017-07-29T08:27:10.124Z,3812
2017-07-29T08:28:20.306Z,4140
2017-07-29T08:29:29.189Z,4204
2017-07-29T08:30:39.047Z,3884
2017-07-29T08:31:48.631Z,3848
2017-07-29T08:32:58.154Z,4352
2017-07-29T08:34:07.671Z,4476
2017-07-29T08:35:16.926Z,4492
2017-07-29T08:36:26.139Z,4692
2017-07-29T08:37:35.350Z,4312
2017-07-29T08:38:44.569Z,4036
2017-07-29T08:39:53.782Z,3452
2017-07-29T08:41:02.986Z,3300
2017-07-29T08:42:13.162Z,3064
2017-07-29T08:43:22.060Z,3232
2017-07-29T08:44:31.925Z,3584
2017-07-29T08:45:41.759Z,3736
2017-07-29T08:46:51.289Z,3696
2017-07-29T08:48:00.822Z,3672
2017-07-29T08:49:10.674Z,3872
2017-07-29T08:50:19.885Z,4076
2017-07-29T08:51:29.347Z,4224
2017-07-29T08:52:38.560Z,4388
2017-07-29T08:53:47.795Z,4468
2017-07-29T08:54:57.020Z,4512
2017-07-29T08:56:06.233Z,5020
2017-07-29T08:57:15.118Z,4768
2017-07-29T08:58:24.975Z,4376
2017-07-29T08:59:34.506Z,4244
2017-07-29T09:00:44.033Z,3808
2017-07-29T09:01:53.242Z,3572
2017-07-29T09:03:02.924Z,4188
2017-07-29T09:04:12.783Z,4396
2017-07-29T09:05:21.995Z,4756
2017-07-29T09:06:32.170Z,4144
2017-07-29T09:07:42.026Z,3284
2017-07-29T09:08:51.715Z,3428
2017-07-29T09:10:01.570Z,4188
2017-07-29T09:11:10.777Z,4444
2017-07-29T09:12:20.304Z,4416
2017-07-29T09:13:29.188Z,4484
2017-07-29T09:14:38.072Z,4316
2017-07-29T09:15:47.285Z,3896
2017-07-29T09:16:56.504Z,3268
2017-07-29T09:18:05.706Z,3220
2017-07-29T09:19:15.236Z,2960
2017-07-29T09:20:25.243Z,2404
2017-07-29T09:21:34.463Z,2992
2017-07-29T09:22:43.994Z,3488
2017-07-29T09:23:53.534Z,3780
2017-07-29T09:25:02.736Z,4496
2017-07-29T09:26:12.421Z,3760
2017-07-29T09:27:21.630Z,4152
2017-07-29T09:28:30.839Z,3468
2017-07-29T09:29:40.366Z,4388
2017-07-29T09:30:49.573Z,4320
2017-07-29T09:31:59.405Z,3728
2017-07-29T09:33:09.263Z,3592
2017-07-29T09:34:18.800Z,4520
2017-07-29T09:35:28.009Z,4380
2017-07-29T09:36:37.226Z,3884
2017-07-29T09:37:46.581Z,3252
2017-07-29T09:38:56.443Z,3116
2017-07-29T09:40:05.975Z,3096
2017-07-29T09:41:15.193Z,3188
2017-07-29T09:42:24.401Z,2572
2017-07-29T09:43:33.658Z,2612
2017-07-29T09:44:43.844Z,3884
2017-07-29T09:45:53.374Z,4632
2017-07-29T09:47:02.588Z,5064
2017-07-29T09:48:12.121Z,3744
2017-07-29T09:49:21.177Z,4268
2017-07-29T09:50:30.384Z,4256
2017-07-29T09:51:39.267Z,4040
2017-07-29T09:52:48.795Z,4076
2017-07-29T09:53:58.011Z,5600
2017-07-29T09:55:07.695Z,5084
2017-07-29T09:56:16.906Z,4704
2017-07-29T09:57:26.436Z,4924
2017-07-29T09:58:35.647Z,4592
2017-07-29T09:59:44.857Z,4084
2017-07-29T10:00:54.538Z,4192
2017-07-29T10:02:03.753Z,4220
2017-07-29T10:03:13.285Z,4532
2017-07-29T10:04:22.493Z,4584
2017-07-29T10:05:31.708Z,4288
2017-07-29T10:06:41.385Z,3744
2017-07-29T10:07:50.271Z,4220
2017-07-29T10:08:59.158Z,4760
2017-07-29T10:10:08.376Z,5020
2017-07-29T10:11:17.584Z,6204
2017-07-29T10:12:26.468Z,5348
2017-07-29T10:13:36.329Z,5176
2017-07-29T10:14:45.561Z,4280
2017-07-29T10:15:55.099Z,4740
2017-07-29T10:17:04.630Z,5012
2017-07-29T10:18:13.835Z,6892
2017-07-29T10:19:23.365Z,5284
2017-07-29T10:20:33.220Z,4500
2017-07-29T10:21:42.754Z,5188
2017-07-29T10:22:52.288Z,5012
2017-07-29T10:24:01.494Z,6372
2017-07-29T10:25:10.714Z,7832
2017-07-29T10:26:19.919Z,7212
2017-07-29T10:27:29.453Z,7784
2017-07-29T10:28:38.662Z,5524
2017-07-29T10:29:47.547Z,6116
2017-07-29T10:30:56.753Z,7312
2017-07-29T10:32:06.606Z,8232
2017-07-29T10:33:15.814Z,8788
2017-07-29T10:34:25.344Z,7052
2017-07-29T10:35:34.700Z,4880
2017-07-29T10:36:43.583Z,4380
2017-07-29T10:37:53.121Z,4212
2017-07-29T10:39:02.017Z,3904
2017-07-29T10:40:10.905Z,4264
2017-07-29T10:41:19.893Z,4504
2017-07-29T10:42:29.434Z,3640
2017-07-29T10:43:38.342Z,3560
2017-07-29T10:44:47.550Z,2980
2017-07-29T10:45:57.080Z,3084
2017-07-29T10:47:06.912Z,2904
2017-07-29T10:48:16.118Z,3244
2017-07-29T10:49:25.001Z,2660
2017-07-29T10:50:34.537Z,2436
2017-07-29T10:51:43.748Z,2656
2017-07-29T10:52:53.441Z,3276
2017-07-29T10:54:02.973Z,3524
2017-07-29T10:55:12.507Z,3276
2017-07-29T10:56:21.715Z,3888
2017-07-29T10:57:30.595Z,3892
2017-07-29T10:58:40.278Z,4664
2017-07-29T10:59:49.491Z,4692
2017-07-29T11:00:59.024Z,4308
2017-07-29T11:02:08.234Z,4296
2017-07-29T11:03:17.116Z,4468
2017-07-29T11:04:27.074Z,3552
2017-07-29T11:05:36.602Z,3788
2017-07-29T11:06:45.817Z,5336
2017-07-29T11:07:55.347Z,4548
2017-07-29T11:09:04.556Z,5120
2017-07-29T11:10:14.710Z,4656
2017-07-29T11:11:23.601Z,5748
2017-07-29T11:12:32.809Z,6752
2017-07-29T11:13:42.670Z,6356
2017-07-29T11:14:51.555Z,6404
2017-07-29T11:16:00.841Z,6372
2017-07-29T11:17:09.724Z,5648
2017-07-29T11:18:18.934Z,6288
2017-07-29T11:19:28.494Z,5708
2017-07-29T11:20:37.719Z,5580
2017-07-29T11:21:46.719Z,5672
2017-07-29T11:22:56.254Z,4880
2017-07-29T11:24:05.486Z,4224
2017-07-29T11:25:15.027Z,3744
2017-07-29T11:26:24.239Z,3696
2017-07-29T11:27:33.454Z,2776
2017-07-29T11:28:42.338Z,2108
2017-07-29T11:29:51.551Z,1696
2017-07-29T11:31:01.094Z,2332
2017-07-29T11:32:09.980Z,5268
2017-07-29T11:33:19.724Z,6772
2017-07-29T11:34:28.937Z,4252
2017-07-29T11:35:37.822Z,3396
2017-07-29T11:36:47.368Z,3940
2017-07-29T11:37:56.900Z,3608
2017-07-29T11:39:06.416Z,3264
2017-07-29T11:40:16.268Z,2868
2017-07-29T11:41:25.799Z,3232
2017-07-29T11:42:35.334Z,3812
2017-07-29T11:43:45.186Z,3244
2017-07-29T11:44:54.445Z,3708
2017-07-29T11:46:03.711Z,2936
2017-07-29T11:47:12.918Z,2492
2017-07-29T11:48:22.128Z,2532
2017-07-29T11:49:31.662Z,1876
2017-07-29T11:50:41.254Z,1892
2017-07-29T11:51:51.137Z,2080
2017-07-29T11:53:00.704Z,1680
2017-07-29T11:54:09.918Z,1736
2017-07-29T11:55:19.453Z,1796
2017-07-29T11:56:29.402Z,2268
2017-07-29T11:57:38.290Z,1984
2017-07-29T11:58:48.144Z,2968
2017-07-29T11:59:57.679Z,2500
2017-07-29T12:01:07.208Z,1944
2017-07-29T12:02:16.941Z,2312
2017-07-29T12:03:26.796Z,2760
2017-07-29T12:04:36.329Z,2728
2017-07-29T12:05:45.214Z,2796
2017-07-29T12:06:54.103Z,2784
2017-07-29T12:08:03.736Z,4188
2017-07-29T12:09:13.275Z,4508
2017-07-29T12:10:22.483Z,5412
2017-07-29T12:11:31.700Z,5824
2017-07-29T12:12:40.933Z,6972
2017-07-29T12:13:50.618Z,9132
2017-07-29T12:14:59.827Z,14956
2017-07-29T12:16:09.039Z,14592
2017-07-29T12:17:18.572Z,10204
2017-07-29T12:18:28.429Z,7880
2017-07-29T12:19:37.786Z,8540
2017-07-29T12:20:47.000Z,8728
2017-07-29T12:21:55.889Z,7356
2017-07-29T12:23:04.771Z,4188
2017-07-29T12:24:13.982Z,3968
2017-07-29T12:25:23.846Z,3880
2017-07-29T12:26:33.061Z,3156
2017-07-29T12:27:42.594Z,2448
2017-07-29T12:28:51.810Z,2464
2017-07-29T12:30:01.678Z,2980
2017-07-29T12:31:11.511Z,2184
2017-07-29T12:32:20.731Z,1628
2017-07-29T12:33:30.260Z,1372
2017-07-29T12:34:39.476Z,1052
2017-07-29T12:35:49.016Z,948
2017-07-29T12:36:59.130Z,1344
2017-07-29T12:38:08.359Z,1288
2017-07-29T12:39:17.569Z,1544
2017-07-29T12:40:27.424Z,1948
2017-07-29T12:41:36.306Z,3152
2017-07-29T12:42:45.292Z,4812
2017-07-29T12:43:54.499Z,5108
2017-07-29T12:45:04.350Z,9388
2017-07-29T12:46:13.554Z,6776
2017-07-29T12:47:23.101Z,4828
2017-07-29T12:48:32.931Z,4652
2017-07-29T12:49:42.137Z,3440
2017-07-29T12:50:51.348Z,2844
2017-07-29T12:52:00.553Z,2136
2017-07-29T12:53:10.412Z,1636
2017-07-29T12:54:20.266Z,1424
2017-07-29T12:55:29.152Z,1192
2017-07-29T12:56:38.038Z,1740
2017-07-29T12:57:47.565Z,2292
2017-07-29T12:58:57.100Z,2184
2017-07-29T13:00:06.182Z,3044
2017-07-29T13:01:15.387Z,3064
2017-07-29T13:02:24.917Z,3648
2017-07-29T13:03:34.451Z,5148
2017-07-29T13:04:43.984Z,4908
2017-07-29T13:05:53.345Z,5484
2017-07-29T13:07:02.245Z,9116
2017-07-29T13:08:11.128Z,8928
2017-07-29T13:09:20.336Z,16800
2017-07-29T13:10:29.543Z,7376
2017-07-29T13:11:39.121Z,4896
2017-07-29T13:12:48.332Z,4340
2017-07-29T13:13:57.221Z,4200
2017-07-29T13:15:06.752Z,4268
2017-07-29T13:16:15.961Z,4068
2017-07-29T13:17:25.316Z,5864
2017-07-29T13:18:34.532Z,11016
2017-07-29T13:19:43.750Z,7748
2017-07-29T13:20:52.635Z,7300
2017-07-29T13:22:02.493Z,8560
2017-07-29T13:23:11.855Z,20640
2017-07-29T13:24:21.064Z,19104
2017-07-29T13:25:30.592Z,10576
2017-07-29T13:26:39.796Z,6052
2017-07-29T13:27:49.324Z,7432
2017-07-29T13:28:58.841Z,9324
2017-07-29T13:30:08.373Z,9952
2017-07-29T13:31:17.905Z,10336
2017-07-29T13:32:27.114Z,12984
2017-07-29T13:33:35.996Z,17376
2017-07-29T13:34:45.210Z,15600
2017-07-29T13:35:54.741Z,24704
2017-07-29T13:37:04.274Z,20064
2017-07-29T13:38:13.485Z,14892
2017-07-29T13:39:23.016Z,14916
2017-07-29T13:40:32.002Z,19168
2017-07-29T13:41:41.536Z,17824
2017-07-29T13:42:51.394Z,22336
2017-07-29T13:44:00.604Z,21024
2017-07-29T13:45:10.137Z,26720
2017-07-29T13:46:19.495Z,43072
2017-07-29T13:47:28.705Z,25216
2017-07-29T13:48:38.240Z,30720
2017-07-29T13:49:47.130Z,20128
2017-07-29T13:50:56.664Z,61696
2017-07-29T13:52:06.268Z,20576
2017-07-29T13:53:15.157Z,25184
2017-07-29T13:54:25.010Z,14172
2017-07-29T13:55:34.547Z,10400
2017-07-29T13:56:43.763Z,10144
2017-07-29T13:57:53.453Z,8888
2017-07-29T13:59:02.663Z,7064
2017-07-29T14:00:11.875Z,6564
2017-07-29T14:01:21.084Z,8108
2017-07-29T14:02:30.628Z,8572
2017-07-29T14:03:40.263Z,9536
2017-07-29T14:04:49.476Z,9704
2017-07-29T14:05:58.370Z,9572
2017-07-29T14:07:07.580Z,11268
2017-07-29T14:08:17.443Z,12352
2017-07-29T14:09:26.802Z,14120
2017-07-29T14:10:36.340Z,12900
2017-07-29T14:11:45.549Z,11496
2017-07-29T14:12:54.759Z,10928
2017-07-29T14:14:03.970Z,13732
2017-07-29T14:15:13.341Z,9756
2017-07-29T14:16:22.236Z,6940
2017-07-29T14:17:31.789Z,4840
2017-07-29T14:18:41.005Z,4492
2017-07-29T14:19:50.221Z,3664
2017-07-29T14:20:59.581Z,3304
2017-07-29T14:22:09.119Z,3684
2017-07-29T14:23:18.004Z,4068
2017-07-29T14:24:27.210Z,4544
2017-07-29T14:25:36.103Z,4376
2017-07-29T14:26:45.466Z,3164
2017-07-29T14:27:54.998Z,3076
2017-07-29T14:29:04.859Z,3632
2017-07-29T14:30:14.719Z,4192
2017-07-29T14:31:24.586Z,4844
2017-07-29T14:32:33.799Z,5656
2017-07-29T14:33:43.369Z,4772
2017-07-29T14:34:52.900Z,4428
2017-07-29T14:36:02.113Z,4404
2017-07-29T14:37:10.999Z,4296
2017-07-29T14:38:20.905Z,3684
2017-07-29T14:39:30.438Z,3660
2017-07-29T14:40:39.644Z,3604
2017-07-29T14:41:48.537Z,3856
2017-07-29T14:42:58.717Z,4076
2017-07-29T14:44:08.551Z,4320
2017-07-29T14:45:17.759Z,3440
2017-07-29T14:46:26.642Z,3316
2017-07-29T14:47:35.535Z,3472
2017-07-29T14:48:45.709Z,4568
2017-07-29T14:49:54.748Z,6076
2017-07-29T14:51:03.961Z,6980
2017-07-29T14:52:13.177Z,6108
2017-07-29T14:53:22.707Z,6292
2017-07-29T14:54:32.563Z,7836
2017-07-29T14:55:41.548Z,9844
2017-07-29T14:56:50.432Z,9596
2017-07-29T14:58:00.289Z,8836
2017-07-29T14:59:09.831Z,8780
2017-07-29T15:00:19.365Z,7536
2017-07-29T15:01:29.046Z,6496
2017-07-29T15:02:37.936Z,5120
2017-07-29T15:03:47.145Z,4712
2017-07-29T15:04:56.032Z,3676
2017-07-29T15:06:05.245Z,4220
2017-07-29T15:07:14.608Z,4872
2017-07-29T15:08:23.494Z,5564
2017-07-29T15:09:32.706Z,6316
2017-07-29T15:10:41.593Z,6072
2017-07-29T15:11:50.804Z,6072
2017-07-29T15:13:00.962Z,5016
2017-07-29T15:14:10.828Z,4612
2017-07-29T15:15:19.720Z,4392
2017-07-29T15:16:29.253Z,4912
2017-07-29T15:17:38.503Z,5324
2017-07-29T15:18:47.862Z,5748
2017-07-29T15:19:57.393Z,5520
2017-07-29T15:21:07.255Z,4792
2017-07-29T15:22:16.486Z,5676
2017-07-29T15:23:25.698Z,7156
2017-07-29T15:24:35.283Z,6596
2017-07-29T15:25:44.494Z,5200
2017-07-29T15:26:53.704Z,3672
2017-07-29T15:28:03.883Z,3052
2017-07-29T15:29:13.095Z,2692
2017-07-29T15:30:22.128Z,1732
2017-07-29T15:31:31.665Z,1424
2017-07-29T15:32:40.875Z,1472
2017-07-29T15:33:50.730Z,1836
2017-07-29T15:35:00.282Z,2432
2017-07-29T15:36:09.874Z,3620
2017-07-29T15:37:19.621Z,6312
2017-07-29T15:38:28.505Z,8012
2017-07-29T15:39:37.713Z,6808
2017-07-29T15:40:46.921Z,5444
2017-07-29T15:41:56.505Z,5604
2017-07-29T15:43:06.044Z,5788
2017-07-29T15:44:15.581Z,5144
2017-07-29T15:45:24.793Z,4196
2017-07-29T15:46:34.322Z,3408
2017-07-29T15:47:43.354Z,3084
2017-07-29T15:48:52.891Z,2696
2017-07-29T15:50:02.118Z,2348